createdAt,value
2018-04-13T00:04:51.464Z,13.43
2018-04-13T00:09:53.952Z,13.53
2018-04-13T00:14:57.214Z,13.73
2018-04-13T00:19:59.708Z,12.00
2018-04-13T00:25:02.213Z,12.83
2018-04-13T00:30:04.707Z,13.23
2018-04-13T00:35:07.200Z,13.40
2018-04-13T00:40:09.700Z,13.37
2018-04-13T00:45:12.187Z,12.63
2018-04-13T00:50:14.676Z,12.37
2018-04-13T00:55:17.164Z,13.30
2018-04-13T01:00:20.444Z,12.10
2018-04-13T01:05:22.923Z,12.10
2018-04-13T01:10:25.412Z,11.90
2018-04-13T01:15:27.914Z,13.00
2018-04-13T01:20:30.407Z,13.07
2018-04-13T01:25:32.897Z,13.13
2018-04-13T01:30:35.397Z,13.37
2018-04-13T01:35:37.881Z,11.07
2018-04-13T01:40:40.367Z,12.57
2018-04-13T01:45:42.853Z,11.80
2018-04-13T01:50:45.355Z,14.13
2018-04-13T01:55:47.879Z,12.93
2018-04-13T02:00:50.337Z,13.10
2018-04-13T02:05:52.846Z,12.67
2018-04-13T02:10:55.332Z,12.20
2018-04-13T02:15:57.828Z,12.23
2018-04-13T02:21:00.328Z,11.90
2018-04-13T02:26:02.817Z,12.20
2018-04-13T02:31:05.304Z,12.60
2018-04-13T02:36:07.786Z,11.50
2018-04-13T02:41:10.275Z,14.33
2018-04-13T02:46:12.769Z,13.43
2018-04-13T02:51:15.268Z,13.93
2018-04-13T02:56:17.763Z,13.60
2018-04-13T03:01:20.264Z,14.70
2018-04-13T03:06:22.767Z,14.13
2018-04-13T03:11:25.256Z,14.67
2018-04-13T03:16:27.745Z,13.17
2018-04-13T03:21:30.247Z,13.60
2018-04-13T03:26:32.751Z,14.70
2018-04-13T03:31:35.248Z,14.20
2018-04-13T03:36:37.739Z,15.30
2018-04-13T03:41:40.235Z,14.97
2018-04-13T03:46:42.731Z,14.40
2018-04-13T03:51:45.224Z,15.63
2018-04-13T03:56:47.728Z,15.50
2018-04-13T04:01:50.231Z,17.10
2018-04-13T04:06:52.724Z,16.00
2018-04-13T04:11:55.205Z,16.70
2018-04-13T04:16:57.704Z,16.60
2018-04-13T04:22:12.081Z,17.90
2018-04-13T04:27:15.347Z,17.87
2018-04-13T04:32:17.835Z,18.33
2018-04-13T04:37:20.341Z,17.93
2018-04-13T04:42:22.834Z,20.47
2018-04-13T04:47:25.323Z,21.70
2018-04-13T04:52:27.824Z,22.40
2018-04-13T04:57:30.320Z,23.60
2018-04-13T05:02:32.820Z,25.13
2018-04-13T05:07:35.306Z,27.03
2018-04-13T05:12:37.798Z,26.70
2018-04-13T05:17:40.291Z,26.33
2018-04-13T05:22:42.783Z,28.30
2018-04-13T05:27:45.292Z,29.57
2018-04-13T05:32:47.795Z,30.20
2018-04-13T05:37:50.295Z,28.30
2018-04-13T05:42:52.799Z,33.57
2018-04-13T05:47:55.301Z,32.57
2018-04-13T05:52:57.804Z,29.27
2018-04-13T05:58:00.296Z,32.87
2018-04-13T06:03:02.783Z,46.07
2018-04-13T06:08:05.288Z,39.40
2018-04-13T06:13:07.779Z,43.03
2018-04-13T06:18:10.281Z,40.37
2018-04-13T06:23:12.772Z,42.50
2018-04-13T06:28:15.284Z,44.00
2018-04-13T06:33:17.878Z,41.33
2018-04-13T06:38:20.387Z,44.73
2018-04-13T06:43:23.644Z,44.63
2018-04-13T06:48:26.279Z,44.77
2018-04-13T06:53:28.771Z,47.03
2018-04-13T06:58:31.315Z,45.80
2018-04-13T07:03:33.805Z,44.87
2018-04-13T07:08:36.308Z,47.53
2018-04-13T07:13:38.847Z,49.30
2018-04-13T07:18:42.066Z,48.00
2018-04-13T07:23:45.358Z,52.60
2018-04-13T07:28:47.864Z,51.57
2018-04-13T07:33:50.366Z,54.13
2018-04-13T07:38:52.867Z,52.27
2018-04-13T07:43:55.362Z,54.73
2018-04-13T07:48:57.863Z,57.07
2018-04-13T07:54:00.371Z,54.43
2018-04-13T07:59:02.876Z,55.47
2018-04-13T08:04:05.388Z,55.93
2018-04-13T08:09:08.639Z,58.40
2018-04-13T08:14:11.422Z,55.70
2018-04-13T08:19:13.637Z,57.00
2018-04-13T08:24:16.131Z,54.80
2018-04-13T08:29:18.624Z,57.10
2018-04-13T08:34:21.144Z,57.10
2018-04-13T08:39:23.636Z,60.23
2018-04-13T08:44:26.157Z,59.57
2018-04-13T08:49:28.644Z,58.93
2018-04-13T08:54:31.142Z,59.80
2018-04-13T08:59:33.643Z,56.70
2018-04-13T09:04:36.171Z,58.97
2018-04-13T09:09:38.679Z,55.07
2018-04-13T09:14:41.941Z,59.53
2018-04-13T09:19:44.427Z,57.20
2018-04-13T09:24:47.113Z,55.80
2018-04-13T09:29:49.616Z,58.23
2018-04-13T09:34:52.100Z,57.17
2018-04-13T09:39:54.608Z,54.70
2018-04-13T09:44:57.101Z,56.93
2018-04-13T09:49:59.591Z,55.83
2018-04-13T09:55:02.086Z,53.57
2018-04-13T10:00:04.575Z,53.73
2018-04-13T10:05:12.837Z,52.23
2018-04-13T10:10:22.800Z,52.00
2018-04-13T10:15:25.300Z,52.73
2018-04-13T10:20:27.781Z,53.87
2018-04-13T10:25:30.291Z,51.63
2018-04-13T10:30:32.780Z,49.10
2018-04-13T10:35:35.272Z,51.67
2018-04-13T10:40:37.887Z,49.40
2018-04-13T10:45:40.384Z,50.00
2018-04-13T10:50:43.636Z,48.53
2018-04-13T10:55:46.884Z,50.73
2018-04-13T11:00:49.380Z,47.60
2018-04-13T11:05:51.863Z,46.10
2018-04-13T11:10:54.359Z,45.97
2018-04-13T11:15:56.880Z,46.57
2018-04-13T11:20:59.372Z,45.60
2018-04-13T11:26:01.876Z,45.47
2018-04-13T11:31:04.363Z,46.43
2018-04-13T11:36:07.040Z,44.90
2018-04-13T11:41:09.532Z,45.17
2018-04-13T11:46:12.020Z,44.47
2018-04-13T11:51:14.512Z,45.73
2018-04-13T11:56:16.996Z,44.03
2018-04-13T12:01:19.479Z,43.50
2018-04-13T12:06:22.735Z,43.30
2018-04-13T12:11:25.987Z,45.27
2018-04-13T12:16:29.248Z,49.40
2018-04-13T12:21:31.836Z,48.07
2018-04-13T12:26:34.319Z,47.07
2018-04-13T12:31:36.811Z,46.27
2018-04-13T12:36:39.305Z,45.70
2018-04-13T12:41:41.788Z,44.80
2018-04-13T12:46:45.074Z,44.43
2018-04-13T12:51:47.586Z,40.67
2018-04-13T12:56:50.137Z,41.90
2018-04-13T13:01:52.644Z,40.77
2018-04-13T13:06:55.147Z,39.77
2018-04-13T13:11:57.683Z,34.40
2018-04-13T13:17:00.940Z,36.37
2018-04-13T13:22:03.444Z,38.10
2018-04-13T13:27:05.948Z,37.30
2018-04-13T13:32:08.432Z,33.40
2018-04-13T13:37:10.975Z,33.60
2018-04-13T13:42:13.464Z,33.40
2018-04-13T13:47:15.968Z,31.20
2018-04-13T13:52:18.452Z,32.67
2018-04-13T13:57:20.943Z,32.47
2018-04-13T14:02:23.451Z,30.47
2018-04-13T14:07:25.944Z,30.33
2018-04-13T14:12:28.448Z,28.77
2018-04-13T14:17:30.952Z,28.70
2018-04-13T14:22:33.447Z,29.60
2018-04-13T14:27:35.983Z,28.90
2018-04-13T14:32:38.472Z,27.43
2018-04-13T14:37:40.975Z,29.67
2018-04-13T14:42:43.472Z,26.17
2018-04-13T14:47:45.969Z,28.17
2018-04-13T14:52:48.474Z,28.97
2018-04-13T14:57:51.728Z,28.87
2018-04-13T15:02:54.225Z,28.40
2018-04-13T15:07:56.872Z,30.50
2018-04-13T15:13:00.128Z,29.17
2018-04-13T15:18:02.624Z,28.43
2018-04-13T15:23:05.123Z,28.33
2018-04-13T15:28:07.655Z,30.17
2018-04-13T15:33:10.140Z,31.80
2018-04-13T15:38:12.635Z,30.20
2018-04-13T15:43:15.129Z,30.47
2018-04-13T15:48:17.637Z,30.00
2018-04-13T15:53:20.909Z,28.93
2018-04-13T15:58:23.412Z,30.63
2018-04-13T16:03:25.914Z,29.20
2018-04-13T16:08:28.453Z,30.70
2018-04-13T16:13:31.161Z,30.60
2018-04-13T16:18:33.657Z,31.30
2018-04-13T16:23:36.154Z,30.93
2018-04-13T16:28:38.661Z,30.63
2018-04-13T16:33:41.154Z,28.57
2018-04-13T16:38:43.695Z,26.97
2018-04-13T16:43:46.903Z,29.40
2018-04-13T16:48:50.589Z,27.20
2018-04-13T16:53:53.072Z,28.20
2018-04-13T16:58:55.553Z,25.00
2018-04-13T17:03:58.035Z,26.57
2018-04-13T17:09:00.536Z,24.50
2018-04-13T17:14:03.026Z,26.27
2018-04-13T17:19:05.507Z,23.10
2018-04-13T17:24:08.008Z,22.53
2018-04-13T17:29:10.562Z,22.63
2018-04-13T17:34:13.022Z,22.50
2018-04-13T17:39:15.503Z,21.07
2018-04-13T17:44:18.159Z,21.83
2018-04-13T17:49:21.475Z,22.83
2018-04-13T17:54:24.736Z,22.80
2018-04-13T17:59:27.227Z,21.60
2018-04-13T18:04:29.719Z,21.97
2018-04-13T18:09:32.215Z,20.97
2018-04-13T18:14:34.706Z,21.47
2018-04-13T18:19:37.956Z,20.33
2018-04-13T18:24:41.228Z,20.83
2018-04-13T18:29:43.723Z,18.70
2018-04-13T18:34:46.302Z,19.10
2018-04-13T18:39:48.800Z,16.73
2018-04-13T18:44:51.299Z,18.27
2018-04-13T18:49:53.791Z,20.47
2018-04-13T18:54:56.288Z,19.83
2018-04-13T18:59:59.670Z,19.17
2018-04-13T19:05:02.156Z,21.43
2018-04-13T19:10:04.665Z,20.70
2018-04-13T19:15:07.201Z,20.33
2018-04-13T19:20:09.936Z,21.27
2018-04-13T19:25:12.427Z,20.87
2018-04-13T19:30:15.088Z,20.90
2018-04-13T19:35:17.579Z,22.13
2018-04-13T19:40:20.067Z,19.10
2018-04-13T19:45:22.647Z,22.30
2018-04-13T19:50:25.320Z,21.90
2018-04-13T19:55:27.987Z,19.87
2018-04-13T20:00:31.240Z,22.30
2018-04-13T20:05:33.733Z,24.10
2018-04-13T20:10:36.236Z,26.20
2018-04-13T20:15:39.508Z,25.67
2018-04-13T20:20:42.007Z,28.53
2018-04-13T20:25:44.520Z,25.70
2018-04-13T20:30:47.016Z,28.13
2018-04-13T20:35:49.520Z,27.37
2018-04-13T20:40:52.019Z,28.07
2018-04-13T20:45:54.543Z,29.43
2018-04-13T20:50:57.799Z,30.93
2018-04-13T20:56:00.469Z,27.73
2018-04-13T21:01:03.255Z,31.20
2018-04-13T21:06:06.513Z,28.43
2018-04-13T21:11:08.999Z,30.50
2018-04-13T21:16:11.484Z,29.17
2018-04-13T21:21:13.983Z,31.87
2018-04-13T21:26:16.493Z,31.83
2018-04-13T21:31:18.992Z,33.00
2018-04-13T21:36:21.543Z,31.90
2018-04-13T21:41:24.033Z,32.37
2018-04-13T21:46:26.536Z,33.90
2018-04-13T21:51:29.029Z,32.53
2018-04-13T21:56:31.527Z,31.33
2018-04-13T22:01:34.041Z,34.00
2018-04-13T22:06:36.541Z,31.93
2018-04-13T22:11:39.023Z,31.97
2018-04-13T22:16:41.579Z,31.73
2018-04-13T22:21:44.070Z,33.93
2018-04-13T22:26:46.559Z,33.37
2018-04-13T22:31:49.062Z,35.43
2018-04-13T22:36:51.560Z,33.57
2018-04-13T22:41:54.079Z,37.43
2018-04-13T22:46:56.579Z,34.70
2018-04-13T22:51:59.070Z,37.67
2018-04-13T22:57:01.586Z,37.90
2018-04-13T23:02:04.075Z,36.27
2018-04-13T23:07:06.567Z,38.23
2018-04-13T23:12:09.055Z,36.43
2018-04-13T23:17:11.553Z,37.53
2018-04-13T23:22:25.969Z,38.00
2018-04-13T23:27:28.456Z,39.10
2018-04-13T23:32:30.939Z,39.60
2018-04-13T23:37:33.435Z,39.90
2018-04-13T23:42:35.940Z,38.57
2018-04-13T23:47:38.427Z,37.70
2018-04-13T23:52:40.932Z,38.63
2018-04-13T23:57:43.434Z,39.17
